Terminal Aerodrome Forecast
Issued by NWS Wilmington, OH

Home | Current Version | Previous Version | Text Only | Print | Product List | Glossary On
Versions: 1 2 3 4 5 6 7 8 9 10 11 12 13 14 15 16 17 18 19 20 21
000
FTUS41 KILN 242337 AAB
TAFDAY
TAF AMD
KDAY 242337Z 2500/2524 26004KT P6SM OVC018
     FM250400 16005KT P6SM OVC018
     FM250700 15008KT P6SM SCT020 BKN090
     FM251100 16011KT P6SM BKN050
     FM251400 18012G20KT P6SM SCT020 BKN120
     FM251800 20014G22KT P6SM BKN015 OVC035=

USA.gov is the U.S. government's official web portal to all federal, state and local government web resources and services.